Flight Track Log - Related Links

Times and Time Zones

All times are in EDT time to prevent confusion due to time zone crossing. See the UPS1337 flight status page for this flight to view local times or setup timezone preferences in your user account.

Time Position Orientation Groundspeed Altitude Reporting Facility
EDT Latitude Longitude Course Direction KTS MPH feet Rate Location/Type
Fri 09:44:37 PM 27.9000 -82.6833 180° South 170 196 900  Level Tampa TRACON
Fri 09:45:07 PM 27.8667 -82.6833 180° South 187 215 2,400 2,571 Climbing Tampa TRACON
Fri 09:46:01 PM 27.8167 -82.6833 180° South 255 293 4,500 2,983 Climbing Tampa TRACON
Fri 09:48:06 PM 27.9183 -82.7422 333° Northwest 277 319 11,300 2,724 Climbing Jacksonville Center
Fri 09:49:06 PM 28.0142 -82.7256 North 316 364 12,900 2,188 Climbing Jacksonville Center
Fri 09:54:30 PM 28.6727 -82.7077 North 502 578 25,300 2,195 Climbing FlightAware
Fri 09:55:45 PM 28.8522 -82.7058 North 519 597 27,500 1,682 Climbing FlightAware
Fri 09:57:07 PM 29.0222 -82.7050 North 508 585 29,700 1,054 Climbing Jacksonville Center
Fri 10:02:52 PM 29.8627 -82.6946 North 497 572 35,000 822 Climbing FlightAware
Fri 10:03:34 PM 29.9554 -82.6936 North 500 575 35,000  Level FlightAware
Fri 10:04:14 PM 30.0512 -82.6925 North 502 578 35,000  Level FlightAware
Fri 10:04:55 PM 30.1477 -82.6913 North 503 579 35,000  Level FlightAware
Fri 10:05:34 PM 30.2408 -82.6901 North 504 580 35,000  Level FlightAware
Fri 10:06:15 PM 30.3361 -82.6891 North 504 580 35,000  Level FlightAware
Fri 10:06:50 PM 30.4171 -82.6866 North 511 588 35,000  Level FlightAware
Fri 10:08:15 PM 30.6184 -82.6353 11° North 520 598 35,000 -44 Level FlightAware
Fri 10:09:06 PM 30.7131 -82.5931 11° North 504 580 34,900 -54 Descending Jacksonville Center
Fri 10:10:06 PM 30.8486 -82.5319 21° North 518 596 34,900 50 Level Jacksonville Center
Fri 10:11:06 PM 30.9842 -82.4661 23° Northeast 523 602 35,000  Climbing Jacksonville Center
Fri 10:12:06 PM 31.1217 -82.4022 22° Northeast 528 608 34,900  Descending Jacksonville Center
Fri 10:13:06 PM 31.2569 -82.3239 26° Northeast 535 616 35,000 50 Climbing Jacksonville Center
Fri 10:14:06 PM 31.3903 -82.2428 27° Northeast 529 609 35,000 -50 Level Jacksonville Center
Fri 10:15:06 PM 31.5214 -82.1614 28° Northeast 529 609 34,900  Descending Jacksonville Center
Fri 10:16:06 PM 31.6692 -82.0700 28° Northeast 535 616 35,000 50 Climbing Jacksonville Center
Fri 10:17:06 PM 31.8000 -81.9881 28° Northeast 529 609 35,000  Level Jacksonville Center
Fri 10:18:07 PM 31.9206 -81.9136 28° Northeast 539 620 35,000  Level Jacksonville Center
Fri 10:19:06 PM 32.0681 -81.8236 27° Northeast 539 620 35,000  Level Jacksonville Center
Fri 10:20:06 PM 32.2031 -81.7361 29° Northeast 544 626 35,000  Level Jacksonville Center
Fri 10:21:07 PM 32.3256 -81.6608 27° Northeast 544 626 35,000  Level Jacksonville Center
Fri 10:22:06 PM 32.4728 -81.5678 28° Northeast 539 620 35,000  Level Jacksonville Center
Fri 10:23:06 PM 32.6117 -81.4819 27° Northeast 539 620 35,000  Level Jacksonville Center
Fri 10:28:33 PM 33.3624 -80.9967 28° Northeast 557 641 35,000  Level FlightAware
Fri 10:29:08 PM 33.4410 -80.9459 29° Northeast 556 640 35,000  Level FlightAware
Fri 10:29:43 PM 33.5208 -80.8942 29° Northeast 554 638 35,000  Level FlightAware
Fri 10:30:21 PM 33.6063 -80.8373 32° Northeast 556 640 35,000  Level FlightAware
Fri 10:30:52 PM 33.6712 -80.7865 33° Northeast 558 642 35,000  Level FlightAware
Fri 10:31:23 PM 33.7402 -80.7329 33° Northeast 558 642 35,000 -295 Level FlightAware
Fri 10:31:53 PM 33.8049 -80.6827 33° Northeast 561 646 34,700 -1,184 Descending FlightAware
Fri 10:32:39 PM 33.9044 -80.6049 33° Northeast 561 646 33,500 -1,800 Descending FlightAware
Fri 10:33:23 PM 34.0014 -80.5287 33° Northeast 567 652 32,000 -2,090 Descending FlightAware
Fri 10:34:08 PM 34.1002 -80.4508 33° Northeast 576 663 30,400 -2,283 Descending FlightAware
Fri 10:34:55 PM 34.2011 -80.3710 33° Northeast 554 638 28,500 -2,552 Descending FlightAware
Fri 10:35:35 PM 34.2888 -80.3017 33° Northeast 548 631 26,700 -2,563 Descending FlightAware
Fri 10:36:31 PM 34.4051 -80.2089 34° Northeast 538 619 24,400 -1,514 Descending FlightAware
Fri 10:37:22 PM 34.4963 -80.1363 33° Northeast 532 612 24,000 -682 Descending FlightAware
Fri 10:37:59 PM 34.5805 -80.0713 32° Northeast 528 608 23,400 -275 Descending FlightAware
Fri 10:41:00 PM 34.9487 -79.7917 32° Northeast 519 597 23,000 -568 Descending FlightAware
Fri 10:42:02 PM 35.0792 -79.6919 32° Northeast 504 580 21,100 -2,182 Descending FlightAware
Fri 10:42:39 PM 35.1459 -79.6406 32° Northeast 488 562 19,400 -3,225 Descending FlightAware
Fri 10:43:22 PM 35.2270 -79.5787 31° Northeast 465 535 16,800 -3,759 Descending FlightAware
Fri 10:44:02 PM 35.2992 -79.5278 30° Northeast 442 509 14,200 -3,714 Descending FlightAware
Fri 10:44:46 PM 35.3711 -79.4792 30° Northeast 421 484 11,600 -3,214 Descending Washington Center
Fri 10:44:58 PM 35.3944 -79.4650 26° Northeast 444 511 11,200 -1,200 Descending Washington Center
Fri 10:45:16 PM 35.4200 -79.4458 31° Northeast 373 429 11,000 -197 Descending Washington Center
Fri 10:45:59 PM 35.4711 -79.4125 28° Northeast 383 441 11,000  Level Washington Center
Fri 10:46:17 PM 35.5033 -79.3861 34° Northeast 326 375 11,000  Level Washington Center
Fri 10:46:59 PM 35.5428 -79.3267 51° Northeast 324 373 11,000  Level Washington Center
Fri 10:47:18 PM 35.5583 -79.2967 57° Northeast 331 381 11,000 -98 Level Washington Center
Fri 10:48:00 PM 35.5997 -79.2347 51° Northeast 329 379 10,900 -400 Descending Washington Center
Fri 10:48:18 PM 35.6153 -79.2072 55° Northeast 331 381 10,600 -1,100 Descending Washington Center
Fri 10:49:00 PM 35.6525 -79.1478 52° Northeast 329 379 9,800 -1,400 Descending Washington Center
Fri 10:49:18 PM 35.6700 -79.1203 52° Northeast 310 357 9,200 -1,448 Descending Washington Center
Fri 10:49:58 PM 35.7153 -79.0764 38° Northeast 313 360 8,400 -1,082 Descending Washington Center
Fri 10:50:19 PM 35.7386 -79.0594 31° Northeast 292 336 8,100 -400 Descending Washington Center
Fri 10:50:58 PM 35.7814 -79.0228 35° Northeast 288 331 8,000 -100 Descending Washington Center
Fri 10:51:19 PM 35.8006 -79.0058 36° Northeast 282 325 8,000  Level Washington Center
Fri 10:51:59 PM 35.8436 -78.9667 36° Northeast 283 326 8,000  Level Washington Center
Fri 10:52:20 PM 35.8650 -78.9497 33° Northeast 263 303 8,000  Level Washington Center
Fri 10:52:58 PM 35.9033 -78.9153 36° Northeast 271 312 8,000 -407 Level Washington Center
Fri 10:53:19 PM 35.9247 -78.8958 36° Northeast 259 298 7,600 -1,100 Descending Washington Center
Fri 10:53:58 PM 35.9611 -78.8639 35° Northeast 260 299 6,900 -1,180 Descending Washington Center
Fri 10:54:20 PM 35.9803 -78.8467 36° Northeast 242 278 6,400 -1,590 Descending Washington Center
Fri 10:55:21 PM 36.0319 -78.7922 40° Northeast 236 272 4,700 -1,339 Descending Washington Center
Fri 10:56:21 PM 36.0753 -78.7350 47° Northeast 213 245 3,700 -787 Descending Washington Center
Fri 10:57:23 PM 36.0431 -78.6850 129° Southeast 199 229 3,100 -689 Descending Washington Center
Fri 10:58:23 PM 35.9933 -78.6728 169° South 171 197 2,300 -446 Descending Washington Center
Fri 10:59:24 PM 35.9572 -78.6994 211° Southwest 154 177 2,200 -400 Descending Washington Center
Fri 11:00:23 PM 35.9292 -78.7344 225° Southwest 113 130 1,500 -645 Descending Washington Center
Fri 11:01:25 PM 35.9056 -78.7617 223° Southwest 115 132 900 -581 Descending Washington Center

Login

Don't have an account? Register now (free) for customized features, flight alerts, and more!